Portada
METAR-TAF:

METAR-TAF

Aeroports :

Blackpool, Anglaterra

latitud: 53-46N, longitud: 003-02W, altitud: 10 m

Observació

L'informe es va fer fa 43 minuts, a les 19:50 UTC
Vent 9 kt del Nord/Nord-Est
Temperatura 7°C
Humitat 81%
Pressió 1010 hPa
Visibilitat 10 km o més
Escasses núvols a una alçada de 2400 ft

METAR: EGNH 151950Z 02009KT 9999 FEW024 07/04 Q1010

Hora: 20:33 (20:33 UTC)

Pronòstic

L'informe es va fer fa 3 hores i 31 minuts, a les 17:02 UTC
Pronòstic vàlid del 15 a les 18 UTC al 15 a les 21 UTC
Vent 12 kt del Nord/Nord-Est
Visibilitat 10 km o més
Núvols disperses a una alçada de 3500 ft

TAF: EGNH 151702Z 1518/1521 02012KT 9999 SCT035

Observacions i pronòstics meteorològics de més de 4000 aeroports (METAR i TAF).

Les estacions disponibles són els punts grocs i vermells al mapa.

Posi el ratolí al punt desitjat per veure el nom de l'estació.

Feu clic per veure les observacions i els pronòstics meteorològics.

Per canviar el mapa: feu clic els botons verds amb una creu de color negre per apropar; al botó verd amb un guió per allunyar la imatge; o en les fletxes verdes per a mapes adjacents.


METAR-TAF: